sensor_id;sensor_type;location;lat;lon;timestamp;P1;durP1;ratioP1;P2;durP2;ratioP2
19006;SDS011;9636;47.382;8.480;2023-03-12T00:01:16;2.60;;;2.40;;
19006;SDS011;9636;47.382;8.480;2023-03-12T00:03:43;2.50;;;2.30;;
19006;SDS011;9636;47.382;8.480;2023-03-12T00:06:10;3.77;;;2.67;;
19006;SDS011;9636;47.382;8.480;2023-03-12T00:08:38;2.90;;;2.70;;
19006;SDS011;9636;47.382;8.480;2023-03-12T00:11:06;3.10;;;2.47;;
19006;SDS011;9636;47.382;8.480;2023-03-12T00:13:34;2.73;;;2.47;;
19006;SDS011;9636;47.382;8.480;2023-03-12T00:16:02;2.57;;;2.37;;
19006;SDS011;9636;47.382;8.480;2023-03-12T00:18:30;2.40;;;2.20;;
19006;SDS011;9636;47.382;8.480;2023-03-12T00:20:57;3.00;;;2.53;;
19006;SDS011;9636;47.382;8.480;2023-03-12T00:23:24;2.47;;;2.27;;
19006;SDS011;9636;47.382;8.480;2023-03-12T00:25:51;2.60;;;2.40;;
19006;SDS011;9636;47.382;8.480;2023-03-12T00:28:18;3.27;;;2.53;;
19006;SDS011;9636;47.382;8.480;2023-03-12T00:30:47;2.43;;;2.07;;
19006;SDS011;9636;47.382;8.480;2023-03-12T00:33:16;3.30;;;2.53;;
19006;SDS011;9636;47.382;8.480;2023-03-12T00:35:43;2.60;;;2.40;;
19006;SDS011;9636;47.382;8.480;2023-03-12T00:38:10;2.50;;;2.30;;
19006;SDS011;9636;47.382;8.480;2023-03-12T00:40:37;2.40;;;2.20;;
19006;SDS011;9636;47.382;8.480;2023-03-12T00:43:04;2.50;;;2.30;;
19006;SDS011;9636;47.382;8.480;2023-03-12T00:45:31;2.27;;;2.00;;
19006;SDS011;9636;47.382;8.480;2023-03-12T00:48:00;2.73;;;2.53;;
19006;SDS011;9636;47.382;8.480;2023-03-12T00:50:27;2.50;;;2.30;;
19006;SDS011;9636;47.382;8.480;2023-03-12T00:52:54;2.83;;;2.50;;
19006;SDS011;9636;47.382;8.480;2023-03-12T00:55:21;3.10;;;2.30;;
19006;SDS011;9636;47.382;8.480;2023-03-12T00:57:48;2.40;;;2.23;;
19006;SDS011;9636;47.382;8.480;2023-03-12T01:02:42;2.43;;;2.23;;
19006;SDS011;9636;47.382;8.480;2023-03-12T01:05:11;2.73;;;2.53;;
19006;SDS011;9636;47.382;8.480;2023-03-12T01:07:39;2.53;;;2.33;;
19006;SDS011;9636;47.382;8.480;2023-03-12T01:10:06;3.20;;;2.23;;
19006;SDS011;9636;47.382;8.480;2023-03-12T01:12:34;2.77;;;2.40;;
19006;SDS011;9636;47.382;8.480;2023-03-12T01:15:01;2.23;;;2.03;;
19006;SDS011;9636;47.382;8.480;2023-03-12T01:17:28;2.70;;;2.50;;
19006;SDS011;9636;47.382;8.480;2023-03-12T01:19:55;2.90;;;2.60;;
19006;SDS011;9636;47.382;8.480;2023-03-12T01:22:24;3.20;;;2.10;;
19006;SDS011;9636;47.382;8.480;2023-03-12T01:24:51;2.30;;;2.10;;
19006;SDS011;9636;47.382;8.480;2023-03-12T01:27:18;2.40;;;2.20;;
19006;SDS011;9636;47.382;8.480;2023-03-12T01:29:45;3.10;;;2.30;;
19006;SDS011;9636;47.382;8.480;2023-03-12T01:32:12;2.33;;;2.07;;
19006;SDS011;9636;47.382;8.480;2023-03-12T01:34:41;2.40;;;2.20;;
19006;SDS011;9636;47.382;8.480;2023-03-12T01:37:08;2.30;;;2.10;;
19006;SDS011;9636;47.382;8.480;2023-03-12T01:39:36;3.30;;;2.10;;
19006;SDS011;9636;47.382;8.480;2023-03-12T01:42:03;2.53;;;2.33;;
19006;SDS011;9636;47.382;8.480;2023-03-12T01:47:12;2.30;;;2.10;;
19006;SDS011;9636;47.382;8.480;2023-03-12T01:49:40;1.90;;;1.80;;
19006;SDS011;9636;47.382;8.480;2023-03-12T01:52:08;2.10;;;2.00;;
19006;SDS011;9636;47.382;8.480;2023-03-12T01:54:38;2.53;;;2.27;;
19006;SDS011;9636;47.382;8.480;2023-03-12T01:57:08;2.50;;;2.30;;
19006;SDS011;9636;47.382;8.480;2023-03-12T01:59:36;2.10;;;1.90;;
19006;SDS011;9636;47.382;8.480;2023-03-12T02:02:04;2.40;;;2.00;;
19006;SDS011;9636;47.382;8.480;2023-03-12T02:04:32;2.40;;;2.20;;
19006;SDS011;9636;47.382;8.480;2023-03-12T02:07:00;2.10;;;1.90;;
19006;SDS011;9636;47.382;8.480;2023-03-12T02:09:28;3.53;;;2.10;;
19006;SDS011;9636;47.382;8.480;2023-03-12T02:11:58;1.93;;;1.83;;
19006;SDS011;9636;47.382;8.480;2023-03-12T02:14:25;2.13;;;1.93;;
19006;SDS011;9636;47.382;8.480;2023-03-12T02:16:52;2.20;;;2.00;;
19006;SDS011;9636;47.382;8.480;2023-03-12T02:19:21;2.07;;;1.80;;
19006;SDS011;9636;47.382;8.480;2023-03-12T02:21:50;2.03;;;1.87;;
19006;SDS011;9636;47.382;8.480;2023-03-12T02:24:20;2.10;;;1.90;;
19006;SDS011;9636;47.382;8.480;2023-03-12T02:26:49;1.90;;;1.80;;
19006;SDS011;9636;47.382;8.480;2023-03-12T02:29:16;2.10;;;1.90;;
19006;SDS011;9636;47.382;8.480;2023-03-12T02:31:44;2.10;;;1.90;;
19006;SDS011;9636;47.382;8.480;2023-03-12T02:34:12;2.00;;;1.80;;
19006;SDS011;9636;47.382;8.480;2023-03-12T02:36:40;1.83;;;1.73;;
19006;SDS011;9636;47.382;8.480;2023-03-12T02:39:08;1.80;;;1.70;;
19006;SDS011;9636;47.382;8.480;2023-03-12T02:41:37;2.03;;;1.83;;
19006;SDS011;9636;47.382;8.480;2023-03-12T02:44:07;2.70;;;2.00;;
19006;SDS011;9636;47.382;8.480;2023-03-12T02:46:37;1.80;;;1.70;;
19006;SDS011;9636;47.382;8.480;2023-03-12T02:49:05;1.90;;;1.80;;
19006;SDS011;9636;47.382;8.480;2023-03-12T02:51:33;1.47;;;1.37;;
19006;SDS011;9636;47.382;8.480;2023-03-12T02:54:00;1.80;;;1.70;;
19006;SDS011;9636;47.382;8.480;2023-03-12T02:56:27;1.60;;;1.50;;
19006;SDS011;9636;47.382;8.480;2023-03-12T02:58:54;1.80;;;1.70;;
19006;SDS011;9636;47.382;8.480;2023-03-12T03:01:23;1.60;;;1.50;;
19006;SDS011;9636;47.382;8.480;2023-03-12T03:03:50;1.70;;;1.60;;
19006;SDS011;9636;47.382;8.480;2023-03-12T03:06:18;1.70;;;1.60;;
19006;SDS011;9636;47.382;8.480;2023-03-12T03:08:45;1.70;;;1.60;;
19006;SDS011;9636;47.382;8.480;2023-03-12T03:11:13;1.70;;;1.60;;
19006;SDS011;9636;47.382;8.480;2023-03-12T03:13:40;2.27;;;1.50;;
19006;SDS011;9636;47.382;8.480;2023-03-12T03:16:07;1.90;;;1.80;;
19006;SDS011;9636;47.382;8.480;2023-03-12T03:18:37;1.60;;;1.50;;
19006;SDS011;9636;47.382;8.480;2023-03-12T03:21:05;1.80;;;1.70;;
19006;SDS011;9636;47.382;8.480;2023-03-12T03:23:33;1.70;;;1.60;;
19006;SDS011;9636;47.382;8.480;2023-03-12T03:26:00;1.90;;;1.80;;
19006;SDS011;9636;47.382;8.480;2023-03-12T03:28:28;1.60;;;1.50;;
19006;SDS011;9636;47.382;8.480;2023-03-12T03:30:56;1.50;;;1.40;;
19006;SDS011;9636;47.382;8.480;2023-03-12T03:33:25;1.60;;;1.50;;
19006;SDS011;9636;47.382;8.480;2023-03-12T03:35:54;1.70;;;1.60;;
19006;SDS011;9636;47.382;8.480;2023-03-12T03:38:21;1.70;;;1.60;;
19006;SDS011;9636;47.382;8.480;2023-03-12T03:40:48;1.60;;;1.50;;
19006;SDS011;9636;47.382;8.480;2023-03-12T03:43:15;1.67;;;1.57;;
19006;SDS011;9636;47.382;8.480;2023-03-12T03:45:42;1.73;;;1.53;;
19006;SDS011;9636;47.382;8.480;2023-03-12T03:48:10;1.53;;;1.43;;
19006;SDS011;9636;47.382;8.480;2023-03-12T03:50:37;1.87;;;1.50;;
19006;SDS011;9636;47.382;8.480;2023-03-12T03:53:06;1.63;;;1.50;;
19006;SDS011;9636;47.382;8.480;2023-03-12T03:55:34;1.67;;;1.57;;
19006;SDS011;9636;47.382;8.480;2023-03-12T03:58:02;1.60;;;1.50;;
19006;SDS011;9636;47.382;8.480;2023-03-12T04:00:29;1.57;;;1.47;;
19006;SDS011;9636;47.382;8.480;2023-03-12T04:02:56;1.80;;;1.57;;
19006;SDS011;9636;47.382;8.480;2023-03-12T04:05:23;1.40;;;1.30;;
19006;SDS011;9636;47.382;8.480;2023-03-12T04:07:51;1.83;;;1.53;;
19006;SDS011;9636;47.382;8.480;2023-03-12T04:10:20;1.60;;;1.50;;
19006;SDS011;9636;47.382;8.480;2023-03-12T04:12:47;1.50;;;1.40;;
19006;SDS011;9636;47.382;8.480;2023-03-12T04:15:15;1.40;;;1.30;;
19006;SDS011;9636;47.382;8.480;2023-03-12T04:17:42;1.43;;;1.33;;
19006;SDS011;9636;47.382;8.480;2023-03-12T04:20:10;1.73;;;1.40;;
19006;SDS011;9636;47.382;8.480;2023-03-12T04:22:37;1.50;;;1.40;;
19006;SDS011;9636;47.382;8.480;2023-03-12T04:25:05;1.37;;;1.27;;
19006;SDS011;9636;47.382;8.480;2023-03-12T04:27:34;1.40;;;1.30;;
19006;SDS011;9636;47.382;8.480;2023-03-12T04:30:01;1.60;;;1.50;;
19006;SDS011;9636;47.382;8.480;2023-03-12T04:32:28;1.50;;;1.40;;
19006;SDS011;9636;47.382;8.480;2023-03-12T04:34:55;1.50;;;1.40;;
19006;SDS011;9636;47.382;8.480;2023-03-12T04:37:23;1.30;;;1.20;;
19006;SDS011;9636;47.382;8.480;2023-03-12T04:39:50;1.40;;;1.30;;
19006;SDS011;9636;47.382;8.480;2023-03-12T04:42:17;1.50;;;1.40;;
19006;SDS011;9636;47.382;8.480;2023-03-12T04:44:45;1.43;;;1.33;;
19006;SDS011;9636;47.382;8.480;2023-03-12T04:47:12;1.40;;;1.30;;
19006;SDS011;9636;47.382;8.480;2023-03-12T04:49:39;1.50;;;1.40;;
19006;SDS011;9636;47.382;8.480;2023-03-12T04:52:07;1.43;;;1.33;;
19006;SDS011;9636;47.382;8.480;2023-03-12T04:54:34;1.50;;;1.40;;
19006;SDS011;9636;47.382;8.480;2023-03-12T04:57:01;1.47;;;1.30;;
19006;SDS011;9636;47.382;8.480;2023-03-12T04:59:28;1.47;;;1.37;;
19006;SDS011;9636;47.382;8.480;2023-03-12T05:01:57;1.40;;;1.30;;
19006;SDS011;9636;47.382;8.480;2023-03-12T05:04:24;1.60;;;1.50;;
19006;SDS011;9636;47.382;8.480;2023-03-12T05:06:51;1.30;;;1.20;;
19006;SDS011;9636;47.382;8.480;2023-03-12T05:09:18;1.50;;;1.40;;
19006;SDS011;9636;47.382;8.480;2023-03-12T05:11:45;1.30;;;1.20;;
19006;SDS011;9636;47.382;8.480;2023-03-12T05:14:12;1.30;;;1.20;;
19006;SDS011;9636;47.382;8.480;2023-03-12T05:16:39;1.63;;;1.33;;
19006;SDS011;9636;47.382;8.480;2023-03-12T05:19:08;1.60;;;1.50;;
19006;SDS011;9636;47.382;8.480;2023-03-12T05:21:35;1.80;;;1.50;;
19006;SDS011;9636;47.382;8.480;2023-03-12T05:24:02;1.37;;;1.30;;
19006;SDS011;9636;47.382;8.480;2023-03-12T05:26:30;1.30;;;1.20;;
19006;SDS011;9636;47.382;8.480;2023-03-12T05:28:58;1.40;;;1.30;;
19006;SDS011;9636;47.382;8.480;2023-03-12T05:31:25;1.43;;;1.23;;
19006;SDS011;9636;47.382;8.480;2023-03-12T05:33:57;1.47;;;1.37;;
19006;SDS011;9636;47.382;8.480;2023-03-12T05:36:25;1.43;;;1.33;;
19006;SDS011;9636;47.382;8.480;2023-03-12T05:38:52;1.30;;;1.20;;
19006;SDS011;9636;47.382;8.480;2023-03-12T05:41:20;1.07;;;1.07;;
19006;SDS011;9636;47.382;8.480;2023-03-12T05:43:47;1.50;;;1.40;;
19006;SDS011;9636;47.382;8.480;2023-03-12T05:46:15;1.70;;;1.40;;
19006;SDS011;9636;47.382;8.480;2023-03-12T05:48:42;2.43;;;1.30;;
19006;SDS011;9636;47.382;8.480;2023-03-12T05:51:09;1.13;;;1.13;;
19006;SDS011;9636;47.382;8.480;2023-03-12T05:53:37;1.30;;;1.20;;
19006;SDS011;9636;47.382;8.480;2023-03-12T05:56:05;1.27;;;1.23;;
19006;SDS011;9636;47.382;8.480;2023-03-12T05:58:33;1.37;;;1.27;;
19006;SDS011;9636;47.382;8.480;2023-03-12T06:01:02;1.57;;;1.20;;
19006;SDS011;9636;47.382;8.480;2023-03-12T06:03:29;1.30;;;1.20;;
19006;SDS011;9636;47.382;8.480;2023-03-12T06:05:56;1.00;;;1.00;;
19006;SDS011;9636;47.382;8.480;2023-03-12T06:08:23;1.20;;;1.10;;
19006;SDS011;9636;47.382;8.480;2023-03-12T06:10:52;1.20;;;1.10;;
19006;SDS011;9636;47.382;8.480;2023-03-12T06:13:19;1.13;;;1.03;;
19006;SDS011;9636;47.382;8.480;2023-03-12T06:15:46;1.30;;;1.20;;
19006;SDS011;9636;47.382;8.480;2023-03-12T06:18:13;1.17;;;1.13;;
19006;SDS011;9636;47.382;8.480;2023-03-12T06:20:41;1.10;;;1.10;;
19006;SDS011;9636;47.382;8.480;2023-03-12T06:23:08;1.30;;;1.20;;
19006;SDS011;9636;47.382;8.480;2023-03-12T06:25:35;1.40;;;1.30;;
19006;SDS011;9636;47.382;8.480;2023-03-12T06:28:04;1.00;;;1.00;;
19006;SDS011;9636;47.382;8.480;2023-03-12T06:30:31;1.20;;;1.20;;
19006;SDS011;9636;47.382;8.480;2023-03-12T06:32:58;1.20;;;1.10;;
19006;SDS011;9636;47.382;8.480;2023-03-12T06:35:28;1.20;;;1.10;;
19006;SDS011;9636;47.382;8.480;2023-03-12T06:37:55;1.00;;;1.00;;
19006;SDS011;9636;47.382;8.480;2023-03-12T06:40:22;1.00;;;1.00;;
19006;SDS011;9636;47.382;8.480;2023-03-12T06:42:49;1.23;;;1.20;;
19006;SDS011;9636;47.382;8.480;2023-03-12T06:45:18;0.90;;;0.90;;
19006;SDS011;9636;47.382;8.480;2023-03-12T06:47:45;1.10;;;1.00;;
19006;SDS011;9636;47.382;8.480;2023-03-12T06:50:12;1.17;;;1.10;;
19006;SDS011;9636;47.382;8.480;2023-03-12T06:52:39;1.00;;;1.00;;
19006;SDS011;9636;47.382;8.480;2023-03-12T06:55:06;1.03;;;1.00;;
19006;SDS011;9636;47.382;8.480;2023-03-12T06:57:33;1.10;;;1.10;;
19006;SDS011;9636;47.382;8.480;2023-03-12T07:00:00;1.20;;;1.10;;
19006;SDS011;9636;47.382;8.480;2023-03-12T07:02:29;0.80;;;0.80;;
19006;SDS011;9636;47.382;8.480;2023-03-12T07:04:56;1.10;;;1.00;;
19006;SDS011;9636;47.382;8.480;2023-03-12T07:07:23;0.97;;;0.97;;
19006;SDS011;9636;47.382;8.480;2023-03-12T07:09:50;0.80;;;0.80;;
19006;SDS011;9636;47.382;8.480;2023-03-12T07:12:17;1.07;;;1.00;;
19006;SDS011;9636;47.382;8.480;2023-03-12T07:14:44;1.00;;;1.00;;
19006;SDS011;9636;47.382;8.480;2023-03-12T07:17:11;1.00;;;1.00;;
19006;SDS011;9636;47.382;8.480;2023-03-12T07:19:40;1.27;;;1.17;;
19006;SDS011;9636;47.382;8.480;2023-03-12T07:22:07;1.20;;;1.10;;
19006;SDS011;9636;47.382;8.480;2023-03-12T07:24:34;1.10;;;1.07;;
19006;SDS011;9636;47.382;8.480;2023-03-12T07:27:01;0.90;;;0.90;;
19006;SDS011;9636;47.382;8.480;2023-03-12T07:29:29;0.90;;;0.90;;
19006;SDS011;9636;47.382;8.480;2023-03-12T07:31:56;0.90;;;0.90;;
19006;SDS011;9636;47.382;8.480;2023-03-12T07:34:23;1.20;;;1.10;;
19006;SDS011;9636;47.382;8.480;2023-03-12T07:36:51;0.87;;;0.87;;
19006;SDS011;9636;47.382;8.480;2023-03-12T07:39:19;1.00;;;1.00;;
19006;SDS011;9636;47.382;8.480;2023-03-12T07:41:46;1.17;;;1.07;;
19006;SDS011;9636;47.382;8.480;2023-03-12T07:44:13;0.90;;;0.90;;
19006;SDS011;9636;47.382;8.480;2023-03-12T07:46:40;1.07;;;1.00;;
19006;SDS011;9636;47.382;8.480;2023-03-12T07:49:07;0.80;;;0.80;;
19006;SDS011;9636;47.382;8.480;2023-03-12T07:51:35;0.80;;;0.80;;
19006;SDS011;9636;47.382;8.480;2023-03-12T07:54:03;0.97;;;0.93;;
19006;SDS011;9636;47.382;8.480;2023-03-12T07:56:30;0.83;;;0.83;;
19006;SDS011;9636;47.382;8.480;2023-03-12T07:58:57;0.93;;;0.93;;
19006;SDS011;9636;47.382;8.480;2023-03-12T08:01:24;0.80;;;0.80;;
19006;SDS011;9636;47.382;8.480;2023-03-12T08:03:55;0.97;;;0.97;;
19006;SDS011;9636;47.382;8.480;2023-03-12T08:06:23;0.93;;;0.93;;
19006;SDS011;9636;47.382;8.480;2023-03-12T08:08:50;1.20;;;1.10;;
19006;SDS011;9636;47.382;8.480;2023-03-12T08:11:19;0.90;;;0.90;;
19006;SDS011;9636;47.382;8.480;2023-03-12T08:13:46;0.90;;;0.90;;
19006;SDS011;9636;47.382;8.480;2023-03-12T08:16:13;0.90;;;0.90;;
19006;SDS011;9636;47.382;8.480;2023-03-12T08:18:40;1.03;;;1.00;;
19006;SDS011;9636;47.382;8.480;2023-03-12T08:21:08;1.20;;;1.10;;
19006;SDS011;9636;47.382;8.480;2023-03-12T08:23:35;1.07;;;1.00;;
19006;SDS011;9636;47.382;8.480;2023-03-12T08:26:02;0.83;;;0.83;;
19006;SDS011;9636;47.382;8.480;2023-03-12T08:28:30;1.00;;;1.00;;
19006;SDS011;9636;47.382;8.480;2023-03-12T08:30:58;0.90;;;0.90;;
19006;SDS011;9636;47.382;8.480;2023-03-12T08:33:25;0.90;;;0.90;;
19006;SDS011;9636;47.382;8.480;2023-03-12T08:35:52;1.10;;;1.00;;
19006;SDS011;9636;47.382;8.480;2023-03-12T08:38:20;0.93;;;0.93;;
19006;SDS011;9636;47.382;8.480;2023-03-12T08:40:53;0.93;;;0.87;;
19006;SDS011;9636;47.382;8.480;2023-03-12T08:43:20;0.90;;;0.90;;
19006;SDS011;9636;47.382;8.480;2023-03-12T08:45:52;0.90;;;0.90;;
19006;SDS011;9636;47.382;8.480;2023-03-12T08:48:19;1.00;;;1.00;;
19006;SDS011;9636;47.382;8.480;2023-03-12T08:50:47;0.90;;;0.90;;
19006;SDS011;9636;47.382;8.480;2023-03-12T08:53:14;0.90;;;0.90;;
19006;SDS011;9636;47.382;8.480;2023-03-12T08:55:41;1.03;;;0.93;;
19006;SDS011;9636;47.382;8.480;2023-03-12T08:58:09;0.90;;;0.90;;
19006;SDS011;9636;47.382;8.480;2023-03-12T09:00:36;0.80;;;0.80;;
19006;SDS011;9636;47.382;8.480;2023-03-12T09:03:05;0.70;;;0.70;;
19006;SDS011;9636;47.382;8.480;2023-03-12T09:05:32;0.70;;;0.70;;
19006;SDS011;9636;47.382;8.480;2023-03-12T09:07:59;0.87;;;0.87;;
19006;SDS011;9636;47.382;8.480;2023-03-12T09:10:26;0.80;;;0.80;;
19006;SDS011;9636;47.382;8.480;2023-03-12T09:12:53;1.00;;;0.90;;
19006;SDS011;9636;47.382;8.480;2023-03-12T09:15:20;1.00;;;0.90;;
19006;SDS011;9636;47.382;8.480;2023-03-12T09:17:48;0.70;;;0.70;;
19006;SDS011;9636;47.382;8.480;2023-03-12T09:20:16;0.83;;;0.80;;
19006;SDS011;9636;47.382;8.480;2023-03-12T09:22:43;0.70;;;0.70;;
19006;SDS011;9636;47.382;8.480;2023-03-12T09:25:11;0.80;;;0.80;;
19006;SDS011;9636;47.382;8.480;2023-03-12T09:27:38;0.73;;;0.73;;
19006;SDS011;9636;47.382;8.480;2023-03-12T09:30:07;0.87;;;0.87;;
19006;SDS011;9636;47.382;8.480;2023-03-12T09:32:34;0.90;;;0.90;;
19006;SDS011;9636;47.382;8.480;2023-03-12T09:35:02;0.80;;;0.80;;
19006;SDS011;9636;47.382;8.480;2023-03-12T09:37:30;0.80;;;0.80;;
19006;SDS011;9636;47.382;8.480;2023-03-12T09:39:57;0.70;;;0.70;;
19006;SDS011;9636;47.382;8.480;2023-03-12T09:42:25;0.90;;;0.90;;
19006;SDS011;9636;47.382;8.480;2023-03-12T09:44:54;0.73;;;0.73;;
19006;SDS011;9636;47.382;8.480;2023-03-12T09:47:24;0.97;;;0.97;;
19006;SDS011;9636;47.382;8.480;2023-03-12T10:02:18;5.70;;;1.00;;
19006;SDS011;9636;47.382;8.480;2023-03-12T10:04:56;0.70;;;0.70;;
19006;SDS011;9636;47.382;8.480;2023-03-12T10:07:29;1.10;;;0.90;;
19006;SDS011;9636;47.382;8.480;2023-03-12T10:10:05;0.80;;;0.80;;
19006;SDS011;9636;47.382;8.480;2023-03-12T10:12:46;1.43;;;0.93;;
19006;SDS011;9636;47.382;8.480;2023-03-12T10:15:26;1.23;;;1.00;;
19006;SDS011;9636;47.382;8.480;2023-03-12T10:18:07;1.13;;;0.90;;
19006;SDS011;9636;47.382;8.480;2023-03-12T10:20:59;0.93;;;0.90;;
19006;SDS011;9636;47.382;8.480;2023-03-12T10:23:48;0.80;;;0.80;;
19006;SDS011;9636;47.382;8.480;2023-03-12T10:26:26;0.80;;;0.80;;
19006;SDS011;9636;47.382;8.480;2023-03-12T10:28:58;1.27;;;0.70;;
19006;SDS011;9636;47.382;8.480;2023-03-12T10:31:28;0.73;;;0.73;;
19006;SDS011;9636;47.382;8.480;2023-03-12T10:33:59;0.80;;;0.80;;
19006;SDS011;9636;47.382;8.480;2023-03-12T10:36:28;1.17;;;1.10;;
19006;SDS011;9636;47.382;8.480;2023-03-12T10:39:02;0.97;;;0.97;;
19006;SDS011;9636;47.382;8.480;2023-03-12T10:41:30;0.90;;;0.90;;
19006;SDS011;9636;47.382;8.480;2023-03-12T10:43:59;1.33;;;1.00;;
19006;SDS011;9636;47.382;8.480;2023-03-12T10:46:37;0.80;;;0.80;;
19006;SDS011;9636;47.382;8.480;2023-03-12T10:49:23;1.20;;;1.00;;
19006;SDS011;9636;47.382;8.480;2023-03-12T10:51:59;0.90;;;0.90;;
19006;SDS011;9636;47.382;8.480;2023-03-12T10:54:30;0.80;;;0.80;;
19006;SDS011;9636;47.382;8.480;2023-03-12T10:56:58;0.70;;;0.70;;
19006;SDS011;9636;47.382;8.480;2023-03-12T10:59:27;0.67;;;0.67;;
19006;SDS011;9636;47.382;8.480;2023-03-12T11:01:56;0.77;;;0.77;;
19006;SDS011;9636;47.382;8.480;2023-03-12T11:04:25;1.00;;;1.00;;
19006;SDS011;9636;47.382;8.480;2023-03-12T11:07:04;0.80;;;0.80;;
19006;SDS011;9636;47.382;8.480;2023-03-12T11:09:40;0.60;;;0.60;;
19006;SDS011;9636;47.382;8.480;2023-03-12T11:12:21;0.97;;;0.97;;
19006;SDS011;9636;47.382;8.480;2023-03-12T11:14:49;0.80;;;0.80;;
19006;SDS011;9636;47.382;8.480;2023-03-12T11:17:18;0.80;;;0.80;;
19006;SDS011;9636;47.382;8.480;2023-03-12T11:19:49;0.63;;;0.63;;
19006;SDS011;9636;47.382;8.480;2023-03-12T11:22:25;0.80;;;0.80;;
19006;SDS011;9636;47.382;8.480;2023-03-12T11:24:56;0.70;;;0.70;;
19006;SDS011;9636;47.382;8.480;2023-03-12T11:27:26;0.77;;;0.73;;
19006;SDS011;9636;47.382;8.480;2023-03-12T11:29:59;0.93;;;0.90;;
19006;SDS011;9636;47.382;8.480;2023-03-12T11:32:29;0.87;;;0.77;;
19006;SDS011;9636;47.382;8.480;2023-03-12T11:35:00;0.80;;;0.80;;
19006;SDS011;9636;47.382;8.480;2023-03-12T11:37:30;0.80;;;0.73;;
19006;SDS011;9636;47.382;8.480;2023-03-12T11:40:11;0.77;;;0.77;;
19006;SDS011;9636;47.382;8.480;2023-03-12T11:42:50;0.70;;;0.70;;
19006;SDS011;9636;47.382;8.480;2023-03-12T11:45:37;0.70;;;0.70;;
19006;SDS011;9636;47.382;8.480;2023-03-12T11:48:13;0.80;;;0.80;;
19006;SDS011;9636;47.382;8.480;2023-03-12T11:50:52;0.80;;;0.80;;
19006;SDS011;9636;47.382;8.480;2023-03-12T11:53:37;0.85;;;0.85;;
19006;SDS011;9636;47.382;8.480;2023-03-12T11:56:27;1.27;;;0.80;;
19006;SDS011;9636;47.382;8.480;2023-03-12T11:59:01;0.70;;;0.70;;
19006;SDS011;9636;47.382;8.480;2023-03-12T12:01:48;0.80;;;0.80;;
19006;SDS011;9636;47.382;8.480;2023-03-12T12:04:27;0.80;;;0.80;;
19006;SDS011;9636;47.382;8.480;2023-03-12T12:07:12;0.70;;;0.70;;
19006;SDS011;9636;47.382;8.480;2023-03-12T12:09:46;0.97;;;0.80;;
19006;SDS011;9636;47.382;8.480;2023-03-12T12:12:24;0.70;;;0.70;;
19006;SDS011;9636;47.382;8.480;2023-03-12T12:15:08;0.80;;;0.80;;
19006;SDS011;9636;47.382;8.480;2023-03-12T12:17:46;0.83;;;0.80;;
19006;SDS011;9636;47.382;8.480;2023-03-12T12:20:27;0.70;;;0.70;;
19006;SDS011;9636;47.382;8.480;2023-03-12T12:23:08;0.70;;;0.70;;
19006;SDS011;9636;47.382;8.480;2023-03-12T12:31:28;0.80;;;0.80;;
19006;SDS011;9636;47.382;8.480;2023-03-12T12:34:03;0.80;;;0.80;;
19006;SDS011;9636;47.382;8.480;2023-03-12T12:36:45;0.70;;;0.70;;
19006;SDS011;9636;47.382;8.480;2023-03-12T12:39:21;0.80;;;0.80;;
19006;SDS011;9636;47.382;8.480;2023-03-12T12:41:56;0.77;;;0.77;;
19006;SDS011;9636;47.382;8.480;2023-03-12T12:44:28;1.27;;;0.90;;
19006;SDS011;9636;47.382;8.480;2023-03-12T12:46:59;0.83;;;0.80;;
19006;SDS011;9636;47.382;8.480;2023-03-12T12:49:30;0.70;;;0.70;;
19006;SDS011;9636;47.382;8.480;2023-03-12T12:52:06;0.67;;;0.67;;
19006;SDS011;9636;47.382;8.480;2023-03-12T12:54:40;1.47;;;0.90;;
19006;SDS011;9636;47.382;8.480;2023-03-12T12:57:13;1.90;;;0.73;;
19006;SDS011;9636;47.382;8.480;2023-03-12T12:59:45;3.10;;;0.80;;
19006;SDS011;9636;47.382;8.480;2023-03-12T13:02:24;3.43;;;0.87;;
19006;SDS011;9636;47.382;8.480;2023-03-12T13:04:54;2.80;;;0.90;;
19006;SDS011;9636;47.382;8.480;2023-03-12T13:07:30;4.25;;;1.08;;
19006;SDS011;9636;47.382;8.480;2023-03-12T13:10:03;1.10;;;0.80;;
19006;SDS011;9636;47.382;8.480;2023-03-12T13:12:32;2.05;;;0.82;;
19006;SDS011;9636;47.382;8.480;2023-03-12T13:15:31;1.88;;;0.80;;
19006;SDS011;9636;47.382;8.480;2023-03-12T13:18:05;3.60;;;0.95;;
19006;SDS011;9636;47.382;8.480;2023-03-12T13:20:36;1.95;;;0.75;;
19006;SDS011;9636;47.382;8.480;2023-03-12T13:23:18;1.67;;;0.73;;
19006;SDS011;9636;47.382;8.480;2023-03-12T13:25:59;2.38;;;0.80;;
19006;SDS011;9636;47.382;8.480;2023-03-12T13:28:32;0.70;;;0.70;;
19006;SDS011;9636;47.382;8.480;2023-03-12T13:36:56;1.63;;;0.75;;
19006;SDS011;9636;47.382;8.480;2023-03-12T13:39:28;1.70;;;0.90;;
19006;SDS011;9636;47.382;8.480;2023-03-12T13:41:58;0.80;;;0.80;;
19006;SDS011;9636;47.382;8.480;2023-03-12T13:44:31;1.17;;;0.80;;
19006;SDS011;9636;47.382;8.480;2023-03-12T13:47:03;1.70;;;0.70;;
19006;SDS011;9636;47.382;8.480;2023-03-12T13:49:43;1.33;;;0.77;;
19006;SDS011;9636;47.382;8.480;2023-03-12T13:52:20;0.90;;;0.80;;
19006;SDS011;9636;47.382;8.480;2023-03-12T13:54:49;1.40;;;0.90;;
19006;SDS011;9636;47.382;8.480;2023-03-12T13:57:27;0.90;;;0.70;;
19006;SDS011;9636;47.382;8.480;2023-03-12T14:00:05;0.98;;;0.88;;
19006;SDS011;9636;47.382;8.480;2023-03-12T14:02:42;3.00;;;1.00;;
19006;SDS011;9636;47.382;8.480;2023-03-12T14:05:14;0.70;;;0.70;;
19006;SDS011;9636;47.382;8.480;2023-03-12T14:07:47;1.25;;;0.80;;
19006;SDS011;9636;47.382;8.480;2023-03-12T14:10:35;1.42;;;0.82;;
19006;SDS011;9636;47.382;8.480;2023-03-12T14:13:14;1.65;;;0.80;;
19006;SDS011;9636;47.382;8.480;2023-03-12T14:15:51;2.20;;;0.80;;
19006;SDS011;9636;47.382;8.480;2023-03-12T14:18:26;1.17;;;0.93;;
19006;SDS011;9636;47.382;8.480;2023-03-12T14:20:58;2.50;;;0.85;;
19006;SDS011;9636;47.382;8.480;2023-03-12T14:23:27;0.77;;;0.68;;
19006;SDS011;9636;47.382;8.480;2023-03-12T14:25:59;0.90;;;0.90;;
19006;SDS011;9636;47.382;8.480;2023-03-12T14:28:29;1.40;;;0.85;;
19006;SDS011;9636;47.382;8.480;2023-03-12T14:31:04;0.70;;;0.65;;
19006;SDS011;9636;47.382;8.480;2023-03-12T14:33:35;2.42;;;0.82;;
19006;SDS011;9636;47.382;8.480;2023-03-12T14:36:12;0.80;;;0.80;;
19006;SDS011;9636;47.382;8.480;2023-03-12T14:38:43;2.15;;;1.00;;
19006;SDS011;9636;47.382;8.480;2023-03-12T14:41:11;1.05;;;0.77;;
19006;SDS011;9636;47.382;8.480;2023-03-12T14:43:44;1.65;;;0.70;;
19006;SDS011;9636;47.382;8.480;2023-03-12T14:46:14;1.17;;;0.80;;
19006;SDS011;9636;47.382;8.480;2023-03-12T14:48:45;1.45;;;0.90;;
19006;SDS011;9636;47.382;8.480;2023-03-12T14:51:15;1.05;;;0.80;;
19006;SDS011;9636;47.382;8.480;2023-03-12T14:53:45;0.95;;;0.70;;
19006;SDS011;9636;47.382;8.480;2023-03-12T14:56:12;1.05;;;0.80;;
19006;SDS011;9636;47.382;8.480;2023-03-12T14:58:49;0.98;;;0.80;;
19006;SDS011;9636;47.382;8.480;2023-03-12T15:01:18;1.13;;;0.73;;
19006;SDS011;9636;47.382;8.480;2023-03-12T15:03:47;1.15;;;0.70;;
19006;SDS011;9636;47.382;8.480;2023-03-12T15:06:17;1.05;;;0.80;;
19006;SDS011;9636;47.382;8.480;2023-03-12T15:08:54;1.90;;;0.80;;
19006;SDS011;9636;47.382;8.480;2023-03-12T15:11:21;0.80;;;0.80;;
19006;SDS011;9636;47.382;8.480;2023-03-12T15:13:51;2.47;;;0.85;;
19006;SDS011;9636;47.382;8.480;2023-03-12T15:16:20;1.80;;;0.90;;
19006;SDS011;9636;47.382;8.480;2023-03-12T15:18:48;0.80;;;0.80;;
19006;SDS011;9636;47.382;8.480;2023-03-12T15:21:16;0.70;;;0.70;;
19006;SDS011;9636;47.382;8.480;2023-03-12T15:23:45;0.70;;;0.70;;
19006;SDS011;9636;47.382;8.480;2023-03-12T15:26:15;0.68;;;0.68;;
19006;SDS011;9636;47.382;8.480;2023-03-12T15:28:54;2.25;;;0.80;;
19006;SDS011;9636;47.382;8.480;2023-03-12T15:31:23;1.08;;;0.98;;
19006;SDS011;9636;47.382;8.480;2023-03-12T15:33:58;0.80;;;0.80;;
19006;SDS011;9636;47.382;8.480;2023-03-12T15:36:27;0.80;;;0.80;;
19006;SDS011;9636;47.382;8.480;2023-03-12T15:38:56;2.47;;;0.90;;
19006;SDS011;9636;47.382;8.480;2023-03-12T15:41:26;0.75;;;0.75;;
19006;SDS011;9636;47.382;8.480;2023-03-12T15:43:59;1.10;;;0.90;;
19006;SDS011;9636;47.382;8.480;2023-03-12T15:46:27;0.93;;;0.70;;